Esther, Alberta

Past 24 Hour Conditions

This table is a summary of hourly weather conditions for the past 24 hours. This summary includes the following parameters: temperature, humidity, dew point, wind speed and direction, air pressure, visibility and/or wind chill and humidex.
Date / Time
(MDT)
Conditions Temp (°F) Humidity (%) Dew Point (°F) Wind (mph) Pressure (inches) Visibility (miles)
24 April 2014
15:00 N/A 50   49 32 NNW 17 gust 22 29.7 N/A
14:00 N/A 46 57 32 NW 16 gust 22 29.7 N/A
13:00 N/A 47 53 31 WNW 17 gust 24 29.7 N/A
12:00 N/A 45 55 30 WNW 17 gust 23 29.7 N/A
11:00 N/A 44 56 29 W 20 gust 26 29.7 N/A
10:00 N/A 43 59 29 WNW 22 29.7 N/A
9:00 N/A 39 73 31 W 17 gust 25 29.7 N/A
8:00 N/A 36 78 30 WSW 20 29.7 N/A
7:00 N/A 34 82 29 WSW 17 29.7 N/A
6:00 N/A 33   85 29 WSW 18 29.7 N/A
5:00 N/A 34 83 30 WSW 16 29.7 N/A
4:00 N/A 36 79 30 WSW 15 29.6 N/A
3:00 N/A 37 76 30 WSW 20 29.6 N/A
2:00 N/A 38 74 31 W 19 29.6 N/A
1:00 N/A 39 73 31 W 22 gust 32 29.6 N/A
00:00 N/A 39 73 31 WSW 20 gust 26 29.6 N/A
23 April 2014
23:00 N/A 39 74 32 WSW 13 29.6 N/A
22:00 N/A 40 74 32 WSW 16 29.6 N/A
21:00 N/A 42 72 33 WSW 14 29.6 N/A
20:00 N/A 44 69 34 W 11 29.6 N/A
19:00 N/A 44 67 34 WSW 16 gust 23 29.6 N/A
18:00 N/A 45 67 35 W 16 gust 25 29.5 N/A
17:00 N/A 47 62 34 W 23 29.5 N/A
16:00 N/A 47 66 36 W 19 gust 27 29.5 N/A
15:00 N/A 47 73 39 W 22 29.5 N/A
N/A
Not available
 ↑ 
Highest temperature
 ↓ 
Lowest temperature

If you require additional historical weather information, please visit Climate Data Online.